Time;durP1;ratioP1;P1;durP2;ratioP2;P2;SDS_P1;SDS_P2;PMS_P1;PMS_P2;Temp;Humidity;BMP_temperature;BMP_pressure;BME280_temperature;BME280_humidity;BME280_pressure;Samples;Min_cycle;Max_cycle;Signal;HPM_P1;HPM_P2
2022/10/11 00:00:43;;;;;;;3.50;2.67;;;12.70;99.90;;;;;;5031555;28;20442;-49
2022/10/11 00:03:09;;;;;;;5.13;2.40;;;13.00;99.90;;;;;;5031794;28;20473;-48
2022/10/11 00:05:37;;;;;;;9.17;3.23;;;13.10;99.90;;;;;;5031580;28;20442;-49
2022/10/11 00:08:04;;;;;;;8.87;2.80;;;12.20;99.90;;;;;;5031876;28;20435;-49
2022/10/11 00:10:31;;;;;;;8.27;3.10;;;12.50;99.90;;;;;;5031390;28;20544;-48
2022/10/11 00:12:59;;;;;;;6.87;2.60;;;12.50;99.90;;;;;;5035128;28;20434;-49
2022/10/11 00:15:26;;;;;;;5.17;2.37;;;12.60;99.90;;;;;;5035315;28;20832;-48
2022/10/11 00:17:52;;;;;;;10.10;3.00;;;12.50;99.90;;;;;;5035365;28;20415;-49
2022/10/11 00:20:19;;;;;;;5.73;2.30;;;12.40;99.90;;;;;;5034965;28;20443;-48
2022/10/11 00:22:46;;;;;;;10.50;2.63;;;12.50;99.90;;;;;;5035530;28;20437;-48
2022/10/11 00:25:13;;;;;;;4.10;2.30;;;12.70;99.90;;;;;;5035354;28;20454;-49
2022/10/11 00:27:39;;;;;;;6.30;2.70;;;12.60;99.90;;;;;;5035392;28;20435;-49
2022/10/11 00:30:10;;;;;;;10.50;2.90;;;12.30;99.90;;;;;;5016889;28;20556;-49
2022/10/11 00:32:37;;;;;;;8.20;2.07;;;12.30;99.90;;;;;;5034984;28;20441;-49
2022/10/11 00:35:05;;;;;;;6.00;2.33;;;12.20;99.90;;;;;;5034991;28;20447;-48
2022/10/11 00:37:32;;;;;;;8.83;2.70;;;12.30;99.90;;;;;;5035202;28;20445;-49
2022/10/11 00:39:59;;;;;;;10.93;2.60;;;12.20;99.90;;;;;;5034537;28;20439;-49
2022/10/11 00:42:27;;;;;;;8.40;2.93;;;11.60;99.90;;;;;;5035111;28;20766;-49
2022/10/11 00:45:33;;;;;;;8.80;2.70;;;12.60;99.90;;;;;;5035026;28;20458;-49
2022/10/11 00:48:04;;;;;;;8.60;2.30;;;12.30;99.90;;;;;;5034726;28;20938;-48
2022/10/11 00:50:34;;;;;;;6.33;2.23;;;11.90;99.90;;;;;;5034334;28;20490;-49
2022/10/11 00:53:07;;;;;;;12.97;2.73;;;12.30;99.90;;;;;;5034704;28;20435;-49
2022/10/11 00:55:37;;;;;;;9.37;2.77;;;12.60;99.90;;;;;;5034817;28;20438;-49
2022/10/11 00:58:04;;;;;;;10.87;2.67;;;12.40;99.90;;;;;;5034592;28;20458;-49
2022/10/11 01:00:30;;;;;;;9.00;2.73;;;12.00;99.90;;;;;;5034178;28;20447;-49
2022/10/11 01:02:58;;;;;;;9.60;2.80;;;12.00;99.90;;;;;;5034666;28;20438;-48
2022/10/11 01:05:26;;;;;;;4.17;2.07;;;12.00;99.90;;;;;;5034457;28;20443;-49
2022/10/11 01:07:53;;;;;;;7.37;2.20;;;12.20;99.90;;;;;;5016627;28;20967;-49
2022/10/11 01:10:20;;;;;;;10.20;2.97;;;11.80;99.90;;;;;;5034222;28;20484;-49
2022/10/11 01:12:56;;;;;;;15.10;3.70;;;12.10;99.90;;;;;;5034254;28;20435;-49
2022/10/11 01:15:28;;;;;;;10.10;3.30;;;12.10;99.90;;;;;;5034401;28;20442;-48
2022/10/11 01:18:00;;;;;;;9.53;2.90;;;12.30;99.90;;;;;;5034222;28;20437;-48
2022/10/11 01:20:38;;;;;;;9.57;2.40;;;12.00;99.90;;;;;;5033904;28;20973;-49
2022/10/11 01:23:29;;;;;;;5.80;2.70;;;12.10;99.90;;;;;;5015295;28;20467;-49
2022/10/11 01:26:18;;;;;;;7.70;3.07;;;11.80;99.90;;;;;;5034033;28;20454;-48
2022/10/11 01:28:50;;;;;;;8.30;2.30;;;11.60;99.90;;;;;;5000656;28;20948;-49
2022/10/11 01:31:24;;;;;;;11.13;3.03;;;12.10;99.90;;;;;;5034151;28;20429;-49
2022/10/11 01:33:55;;;;;;;10.60;2.30;;;11.40;99.90;;;;;;5033996;28;20476;-49
2022/10/11 01:36:28;;;;;;;10.00;3.00;;;11.60;99.90;;;;;;5033972;28;20434;-48
2022/10/11 01:38:59;;;;;;;7.93;2.57;;;11.70;99.90;;;;;;5033764;28;20440;-49
2022/10/11 01:41:30;;;;;;;6.93;2.57;;;11.50;99.90;;;;;;5016155;28;20444;-48
2022/10/11 01:44:00;;;;;;;7.63;2.73;;;11.60;99.90;;;;;;5033839;28;20461;-49
2022/10/11 01:46:30;;;;;;;9.07;3.47;;;11.50;99.90;;;;;;5033703;28;20435;-50
2022/10/11 01:48:58;;;;;;;13.97;3.20;;;11.70;99.90;;;;;;5033153;28;20446;-48
2022/10/11 01:51:29;;;;;;;13.90;3.67;;;11.00;99.90;;;;;;5033939;28;20793;-48
2022/10/11 01:54:10;;;;;;;13.83;2.60;;;11.40;99.90;;;;;;5033640;28;20461;-49
2022/10/11 01:56:56;;;;;;;13.30;3.23;;;11.70;99.90;;;;;;5033794;28;20444;-49
2022/10/11 01:59:40;;;;;;;7.07;2.27;;;11.90;99.90;;;;;;5033113;28;20444;-49
2022/10/11 02:02:20;;;;;;;9.87;3.50;;;11.40;99.90;;;;;;5033399;28;20431;-49
2022/10/11 02:04:53;;;;;;;9.67;2.60;;;11.60;99.90;;;;;;5033452;28;20465;-48
2022/10/11 02:07:22;;;;;;;5.23;2.13;;;11.40;99.90;;;;;;5033357;28;20432;-48
2022/10/11 02:09:53;;;;;;;13.27;3.83;;;11.50;99.90;;;;;;5032746;28;20489;-49
2022/10/11 02:12:26;;;;;;;10.30;2.87;;;11.50;99.90;;;;;;5033371;28;20507;-49
2022/10/11 02:14:55;;;;;;;12.47;2.70;;;11.40;99.90;;;;;;5033185;28;20452;-49
2022/10/11 02:17:29;;;;;;;10.10;2.10;;;11.80;99.90;;;;;;5033190;28;20436;-49
2022/10/11 02:19:57;;;;;;;7.97;2.70;;;11.20;99.90;;;;;;5032759;28;20441;-49
2022/10/11 02:22:28;;;;;;;7.97;2.50;;;11.20;99.90;;;;;;5033237;28;20444;-48
2022/10/11 02:24:58;;;;;;;11.47;2.67;;;11.10;99.90;;;;;;5032993;28;20459;-50
2022/10/11 02:27:29;;;;;;;14.03;2.83;;;11.40;99.90;;;;;;5032972;28;20445;-49
2022/10/11 02:29:59;;;;;;;16.00;2.87;;;10.70;99.90;;;;;;5032447;28;20984;-48
2022/10/11 02:32:30;;;;;;;15.47;3.70;;;11.00;99.90;;;;;;5032906;28;20768;-49
2022/10/11 02:34:59;;;;;;;11.70;3.27;;;11.00;99.90;;;;;;5032511;28;20467;-49
2022/10/11 02:37:32;;;;;;;11.13;3.57;;;11.20;99.90;;;;;;5032702;28;20432;-49
2022/10/11 02:40:06;;;;;;;11.13;3.83;;;11.20;99.90;;;;;;5032446;28;20447;-49
2022/10/11 02:42:36;;;;;;;15.50;3.10;;;11.30;99.90;;;;;;5032660;28;20957;-48
2022/10/11 02:45:07;;;;;;;9.60;3.00;;;10.90;99.90;;;;;;5032481;28;20464;-48
2022/10/11 02:47:37;;;;;;;19.13;3.77;;;10.80;99.90;;;;;;5032747;28;20444;-48
2022/10/11 02:50:05;;;;;;;7.17;2.83;;;11.50;99.90;;;;;;5032214;28;20488;-49
2022/10/11 02:52:31;;;;;;;12.90;3.43;;;11.00;99.90;;;;;;5032454;28;20431;-49
2022/10/11 02:54:58;;;;;;;11.63;2.70;;;10.90;99.90;;;;;;5032507;28;20456;-49
2022/10/11 02:57:24;;;;;;;12.03;2.70;;;10.90;99.90;;;;;;5032360;28;20542;-49
2022/10/11 02:59:51;;;;;;;18.80;3.90;;;11.40;99.90;;;;;;5031958;28;20436;-50
2022/10/11 03:02:17;;;;;;;13.93;2.97;;;11.10;99.90;;;;;;5032280;28;20433;-49
2022/10/11 03:04:45;;;;;;;18.03;3.13;;;11.10;99.90;;;;;;5032311;28;21083;-49
2022/10/11 03:07:13;;;;;;;7.00;3.50;;;10.50;99.90;;;;;;5032313;28;20784;-49
2022/10/11 03:09:40;;;;;;;6.73;2.90;;;10.80;99.90;;;;;;5014101;28;20572;-49
2022/10/11 03:12:06;;;;;;;12.03;3.17;;;11.10;99.90;;;;;;5032276;28;20432;-48
2022/10/11 03:14:33;;;;;;;13.17;3.10;;;10.90;99.90;;;;;;5032137;28;20461;-48
2022/10/11 03:17:00;;;;;;;8.27;3.10;;;10.90;99.90;;;;;;5032280;28;20483;-48
2022/10/11 03:19:26;;;;;;;15.20;4.37;;;11.00;99.90;;;;;;5031875;28;20455;-49
2022/10/11 03:21:54;;;;;;;15.10;3.30;;;11.00;99.90;;;;;;5032480;28;20435;-50
2022/10/11 03:24:21;;;;;;;11.80;3.03;;;10.90;99.90;;;;;;5032197;28;20506;-49
2022/10/11 03:26:47;;;;;;;10.00;2.80;;;11.20;99.90;;;;;;5031972;28;20435;-49
2022/10/11 03:29:14;;;;;;;15.03;3.70;;;11.00;99.90;;;;;;5031433;28;20439;-49
2022/10/11 03:31:40;;;;;;;13.57;3.07;;;10.80;99.90;;;;;;5031888;28;20438;-48
2022/10/11 03:34:07;;;;;;;13.97;3.63;;;10.20;99.90;;;;;;5031650;28;20479;-49
2022/10/11 03:36:34;;;;;;;17.53;3.33;;;10.80;99.90;;;;;;5031877;28;20514;-49
2022/10/11 03:39:02;;;;;;;17.10;4.83;;;10.70;99.90;;;;;;5031506;28;20454;-48
2022/10/11 03:41:29;;;;;;;9.10;2.73;;;10.50;99.90;;;;;;5031881;28;20428;-49
2022/10/11 03:43:55;;;;;;;14.30;3.57;;;10.80;99.90;;;;;;5031641;28;20463;-48
2022/10/11 03:46:22;;;;;;;19.93;3.67;;;10.50;99.90;;;;;;5033092;28;20933;-49
2022/10/11 03:48:49;;;;;;;10.43;3.80;;;10.60;99.90;;;;;;5035625;28;20439;-50
2022/10/11 03:51:16;;;;;;;12.73;3.27;;;10.20;99.90;;;;;;5035694;28;20985;-50
2022/10/11 03:53:43;;;;;;;17.80;4.10;;;10.90;99.90;;;;;;5035690;28;20460;-50
2022/10/11 03:56:10;;;;;;;14.80;3.70;;;10.60;99.90;;;;;;5035834;28;20444;-49
2022/10/11 03:58:37;;;;;;;14.43;4.03;;;10.50;99.90;;;;;;5035399;28;20447;-49
2022/10/11 04:01:04;;;;;;;11.30;3.63;;;10.90;99.90;;;;;;5036065;28;20963;-50
2022/10/11 04:03:30;;;;;;;12.73;3.20;;;10.50;99.90;;;;;;5035637;28;20447;-50
2022/10/11 04:05:57;;;;;;;13.63;3.43;;;10.80;99.90;;;;;;5035432;28;20432;-49
2022/10/11 04:08:23;;;;;;;12.87;3.83;;;10.40;99.90;;;;;;5035334;28;20439;-51
2022/10/11 04:10:50;;;;;;;15.17;3.90;;;10.70;99.90;;;;;;5017508;28;20985;-49
2022/10/11 04:13:18;;;;;;;12.67;3.70;;;10.40;99.90;;;;;;5035409;28;20453;-49
2022/10/11 04:15:45;;;;;;;18.27;5.00;;;10.60;99.90;;;;;;5035370;28;20450;-49
2022/10/11 04:18:11;;;;;;;16.10;4.60;;;10.60;99.90;;;;;;5017254;28;20451;-49
2022/10/11 04:20:38;;;;;;;15.43;4.60;;;10.70;99.90;;;;;;5034774;28;20974;-48
2022/10/11 04:23:05;;;;;;;18.60;3.83;;;11.00;99.90;;;;;;5035040;28;20435;-48
2022/10/11 04:25:31;;;;;;;15.87;4.90;;;10.70;99.90;;;;;;5035134;28;20443;-48
2022/10/11 04:27:58;;;;;;;13.57;4.50;;;10.10;99.90;;;;;;5035089;28;20444;-47
2022/10/11 04:30:26;;;;;;;9.00;4.00;;;10.10;99.90;;;;;;5034752;28;20475;-51
2022/10/11 04:32:53;;;;;;;12.70;4.43;;;10.60;99.90;;;;;;5034831;28;20435;-48
2022/10/11 04:35:19;;;;;;;15.40;5.03;;;10.40;99.90;;;;;;5057164;23;20499;-50
2022/10/11 04:37:46;;;;;;;16.03;4.87;;;10.50;99.90;;;;;;5034381;28;20462;-50
2022/10/11 04:40:13;;;;;;;16.70;5.27;;;10.30;99.90;;;;;;5033981;28;20455;-49
2022/10/11 04:42:39;;;;;;;18.07;5.60;;;10.50;99.90;;;;;;5034296;28;20478;-50
2022/10/11 04:45:08;;;;;;;14.00;4.47;;;10.60;99.90;;;;;;5034167;28;20447;-50
2022/10/11 04:47:36;;;;;;;17.53;5.27;;;10.40;99.90;;;;;;5034131;28;20447;-50
2022/10/11 04:50:03;;;;;;;16.53;4.80;;;10.90;99.90;;;;;;5033535;28;20471;-50
2022/10/11 04:52:30;;;;;;;18.23;4.83;;;10.40;99.90;;;;;;5034567;28;20838;-49
2022/10/11 04:54:56;;;;;;;18.23;5.80;;;10.40;99.90;;;;;;5033913;28;20459;-50
2022/10/11 04:57:23;;;;;;;28.23;7.17;;;10.30;99.90;;;;;;5032319;28;20443;-50
2022/10/11 04:59:49;;;;;;;21.57;5.77;;;10.50;99.90;;;;;;5033384;28;20446;-49
2022/10/11 05:02:16;;;;;;;32.17;6.93;;;10.40;99.90;;;;;;5033479;28;20439;-50
2022/10/11 05:04:44;;;;;;;19.73;5.80;;;10.10;99.90;;;;;;5034098;28;20472;-50
2022/10/11 05:07:11;;;;;;;14.00;5.93;;;10.30;99.90;;;;;;5033552;28;20432;-49
2022/10/11 05:09:37;;;;;;;20.67;5.50;;;10.30;99.90;;;;;;5033155;28;20455;-48
2022/10/11 05:12:05;;;;;;;26.30;8.30;;;10.30;99.90;;;;;;5033724;28;20479;-49
2022/10/11 05:14:31;;;;;;;27.17;6.07;;;10.30;99.90;;;;;;5015345;28;20482;-50
2022/10/11 05:16:58;;;;;;;25.03;5.90;;;10.10;99.90;;;;;;5033875;28;21031;-49
2022/10/11 05:19:24;;;;;;;16.20;6.03;;;10.30;99.90;;;;;;5033806;28;20443;-49
2022/10/11 05:21:53;;;;;;;17.67;6.03;;;10.30;99.90;;;;;;5033674;28;20443;-50
2022/10/11 05:24:20;;;;;;;22.80;6.80;;;9.80;99.90;;;;;;5015685;28;20468;-49
2022/10/11 05:26:47;;;;;;;20.60;5.90;;;9.60;99.90;;;;;;5033351;28;20532;-50
2022/10/11 05:29:13;;;;;;;20.37;6.90;;;10.90;99.90;;;;;;5033055;28;20780;-49
2022/10/11 05:31:40;;;;;;;10.27;5.20;;;10.30;99.90;;;;;;5032995;28;20549;-50
2022/10/11 05:34:06;;;;;;;23.70;5.13;;;10.20;99.90;;;;;;5033474;28;20477;-50
2022/10/11 05:36:33;;;;;;;20.67;6.93;;;10.20;99.90;;;;;;5033123;28;20439;-50
2022/10/11 05:39:01;;;;;;;22.03;7.57;;;10.70;99.90;;;;;;5015339;28;20456;-50
2022/10/11 05:41:28;;;;;;;14.20;6.17;;;10.50;99.90;;;;;;5033322;28;20451;-50
2022/10/11 05:43:55;;;;;;;10.30;5.17;;;10.30;99.90;;;;;;5032069;28;20521;-52
2022/10/11 05:46:21;;;;;;;19.90;5.97;;;10.40;99.90;;;;;;5032805;28;20440;-50
2022/10/11 05:48:48;;;;;;;21.03;6.10;;;10.50;99.90;;;;;;5032215;28;20467;-49
2022/10/11 05:51:15;;;;;;;15.43;6.60;;;10.60;99.90;;;;;;5032781;28;20461;-51
2022/10/11 05:53:42;;;;;;;23.13;7.50;;;10.20;99.90;;;;;;5031775;28;20448;-50
2022/10/11 05:56:20;;;;;;;19.37;9.10;;;10.30;99.90;;;;;;5032404;28;20744;-50
2022/10/11 05:58:46;;;;;;;22.97;7.67;;;10.40;99.90;;;;;;5032052;28;20432;-50
2022/10/11 06:01:18;;;;;;;18.13;6.50;;;9.70;99.90;;;;;;5032081;28;20513;-49
2022/10/11 06:03:45;;;;;;;20.70;7.27;;;10.00;99.90;;;;;;5032346;28;20451;-50
2022/10/11 06:06:11;;;;;;;16.90;6.23;;;10.50;99.90;;;;;;5032454;28;20901;-50
2022/10/11 06:08:38;;;;;;;28.53;16.13;;;10.60;99.90;;;;;;5031506;28;20521;-50
2022/10/11 06:11:10;;;;;;;18.80;7.60;;;10.70;99.90;;;;;;5031766;28;20900;-50
2022/10/11 06:13:38;;;;;;;17.60;7.10;;;10.60;99.90;;;;;;5032122;28;20452;-50
2022/10/11 06:16:05;;;;;;;24.67;7.23;;;10.60;99.90;;;;;;5032054;28;20846;-49
2022/10/11 06:18:32;;;;;;;18.60;6.10;;;10.90;99.90;;;;;;5031630;28;20460;-50
2022/10/11 06:20:58;;;;;;;20.73;7.03;;;11.00;99.90;;;;;;5032000;28;20429;-50
2022/10/11 06:23:25;;;;;;;14.70;4.87;;;11.20;99.90;;;;;;5032301;28;20436;-50
2022/10/11 06:25:56;;;;;;;20.20;5.77;;;10.90;99.90;;;;;;5031947;28;20436;-49
2022/10/11 06:28:23;;;;;;;15.30;6.43;;;10.70;99.90;;;;;;5031895;28;20432;-50
2022/10/11 06:30:50;;;;;;;17.57;6.93;;;10.70;99.90;;;;;;5031433;28;20498;-48
2022/10/11 06:33:17;;;;;;;15.40;5.07;;;10.70;99.90;;;;;;5031801;28;20840;-49
2022/10/11 06:35:44;;;;;;;11.27;4.97;;;11.20;99.90;;;;;;5032055;28;20442;-48
2022/10/11 06:38:10;;;;;;;16.30;6.03;;;11.20;99.90;;;;;;5031891;28;20432;-49
2022/10/11 06:40:37;;;;;;;15.60;6.30;;;11.10;99.90;;;;;;5031260;28;20522;-50
2022/10/11 06:43:04;;;;;;;13.63;5.47;;;10.90;99.90;;;;;;5031889;28;20915;-49
2022/10/11 06:45:30;;;;;;;14.63;5.33;;;10.40;99.90;;;;;;5031796;28;20505;-49
2022/10/11 06:48:00;;;;;;;10.17;5.70;;;11.10;99.90;;;;;;5031631;28;20431;-50
2022/10/11 06:50:27;;;;;;;13.43;6.50;;;11.00;99.90;;;;;;5031032;28;20460;-49
2022/10/11 06:52:53;;;;;;;18.83;5.90;;;10.90;99.90;;;;;;5032056;28;20512;-50
2022/10/11 06:55:20;;;;;;;20.00;5.90;;;10.60;99.90;;;;;;5013139;28;20468;-49
2022/10/11 06:57:46;;;;;;;13.43;5.10;;;11.20;99.90;;;;;;5031517;28;20443;-50
2022/10/11 07:00:14;;;;;;;12.63;6.00;;;11.10;99.90;;;;;;5031346;28;20440;-50
2022/10/11 07:02:41;;;;;;;11.67;5.77;;;11.10;99.90;;;;;;5031412;28;20429;-50
2022/10/11 07:05:09;;;;;;;13.43;5.10;;;10.50;99.90;;;;;;5031217;28;20461;-50
2022/10/11 07:07:36;;;;;;;15.03;7.90;;;10.70;99.90;;;;;;5031238;28;20437;-50
2022/10/11 07:10:02;;;;;;;21.97;5.40;;;11.30;99.90;;;;;;5030961;28;20448;-49
2022/10/11 07:12:29;;;;;;;19.67;6.57;;;11.60;99.90;;;;;;5031273;28;20478;-50
2022/10/11 07:14:56;;;;;;;12.30;4.43;;;11.20;99.90;;;;;;5031247;28;20456;-50
2022/10/11 07:17:22;;;;;;;15.17;5.90;;;11.10;99.90;;;;;;5031001;28;20410;-50
2022/10/11 07:19:49;;;;;;;16.57;5.50;;;11.10;99.90;;;;;;5030755;28;20849;-50
2022/10/11 07:22:17;;;;;;;16.23;5.40;;;11.60;99.90;;;;;;5030187;28;20858;-48
2022/10/11 07:24:43;;;;;;;14.13;5.03;;;11.40;99.90;;;;;;5031203;28;20493;-48
2022/10/11 07:27:10;;;;;;;11.20;4.50;;;11.30;99.90;;;;;;5031026;28;20403;-49
2022/10/11 07:29:36;;;;;;;16.57;5.93;;;11.30;99.90;;;;;;5030817;28;20414;-49
2022/10/11 07:32:03;;;;;;;15.87;4.50;;;11.40;99.90;;;;;;5031045;28;20944;-48
2022/10/11 07:34:30;;;;;;;17.63;6.07;;;11.60;99.90;;;;;;5030688;28;20542;-48
2022/10/11 07:36:57;;;;;;;10.87;4.73;;;11.50;99.90;;;;;;5030091;28;20503;-49
2022/10/11 07:39:25;;;;;;;14.50;5.17;;;11.50;99.90;;;;;;5013169;28;20444;-49
2022/10/11 07:41:51;;;;;;;11.00;5.60;;;12.00;99.90;;;;;;5031037;28;20415;-49
2022/10/11 07:44:18;;;;;;;13.20;4.80;;;11.70;99.90;;;;;;5013236;28;20443;-48
2022/10/11 07:46:44;;;;;;;13.23;5.07;;;12.20;99.90;;;;;;5031526;28;20440;-49
2022/10/11 07:49:11;;;;;;;16.13;5.13;;;11.70;99.90;;;;;;5030636;28;20429;-48
2022/10/11 07:51:37;;;;;;;13.87;5.10;;;11.70;99.90;;;;;;5030668;28;20499;-50
2022/10/11 07:54:04;;;;;;;10.97;5.00;;;11.90;99.90;;;;;;5030338;28;20458;-48
2022/10/11 07:56:32;;;;;;;13.13;5.00;;;11.80;99.90;;;;;;5030895;28;20795;-49
2022/10/11 07:59:02;;;;;;;13.03;5.10;;;12.30;99.90;;;;;;5030678;28;20938;-49
2022/10/11 08:01:31;;;;;;;24.27;5.40;;;11.40;99.90;;;;;;5030987;28;20452;-49
2022/10/11 08:03:58;;;;;;;10.33;4.53;;;11.40;99.90;;;;;;5030499;28;20463;-50
2022/10/11 08:06:30;;;;;;;13.63;6.20;;;11.80;99.90;;;;;;5030678;28;20472;-50
2022/10/11 08:08:59;;;;;;;17.17;6.10;;;12.00;99.90;;;;;;5030429;28;20412;-50
2022/10/11 08:11:27;;;;;;;15.00;5.43;;;11.80;99.90;;;;;;5030981;28;20686;-50
2022/10/11 08:13:58;;;;;;;13.50;6.00;;;11.90;99.90;;;;;;5030515;28;20453;-49
2022/10/11 08:16:25;;;;;;;13.60;5.00;;;11.80;99.90;;;;;;5012760;28;20450;-49
2022/10/11 08:18:53;;;;;;;22.93;5.60;;;12.10;99.90;;;;;;5012362;28;20474;-49
2022/10/11 08:21:19;;;;;;;11.87;4.83;;;11.70;99.90;;;;;;5030777;28;20447;-50
2022/10/11 08:23:46;;;;;;;16.00;5.20;;;11.50;99.90;;;;;;5012610;28;21063;-50
2022/10/11 08:26:13;;;;;;;10.40;4.00;;;12.10;99.90;;;;;;5030877;28;20849;-50
2022/10/11 08:28:40;;;;;;;11.47;3.87;;;12.40;99.90;;;;;;5030244;28;20438;-50
2022/10/11 08:31:11;;;;;;;12.90;4.83;;;12.20;99.90;;;;;;5030098;28;20910;-48
2022/10/11 08:33:37;;;;;;;14.57;5.10;;;12.00;99.90;;;;;;5033363;28;20472;-49
2022/10/11 08:36:05;;;;;;;20.10;4.70;;;12.00;99.90;;;;;;5034140;28;20444;-50
2022/10/11 08:38:32;;;;;;;18.63;4.70;;;11.90;99.90;;;;;;5033429;28;20925;-48
2022/10/11 08:40:59;;;;;;;13.77;4.53;;;12.30;99.90;;;;;;5034013;28;20446;-49
2022/10/11 08:43:35;;;;;;;16.63;5.13;;;11.80;99.90;;;;;;5033715;28;20445;-49
2022/10/11 08:46:05;;;;;;;9.37;4.40;;;12.20;99.90;;;;;;5034398;28;20434;-50
2022/10/11 08:48:36;;;;;;;13.87;4.00;;;12.20;99.90;;;;;;5033094;28;20453;-49
2022/10/11 08:51:08;;;;;;;12.20;3.60;;;12.30;99.90;;;;;;5033871;28;20464;-49
2022/10/11 08:53:45;;;;;;;12.07;3.20;;;12.50;99.90;;;;;;5034223;28;20473;-49
2022/10/11 08:56:14;;;;;;;10.30;3.60;;;12.40;99.90;;;;;;5034288;28;20762;-49
2022/10/11 08:58:46;;;;;;;10.33;3.80;;;12.40;99.90;;;;;;5033131;28;20460;-48
2022/10/11 09:01:18;;;;;;;8.03;4.17;;;12.70;99.90;;;;;;5033631;28;20916;-49
2022/10/11 09:03:47;;;;;;;12.43;4.97;;;12.50;99.90;;;;;;5033892;28;20448;-49
2022/10/11 09:06:23;;;;;;;16.67;5.83;;;12.40;99.90;;;;;;5033734;28;20927;-49
2022/10/11 09:09:09;;;;;;;9.77;3.63;;;12.60;99.90;;;;;;5033202;28;20445;-49
2022/10/11 09:11:47;;;;;;;14.07;4.40;;;12.60;99.90;;;;;;5033475;28;20481;-50
2022/10/11 09:14:34;;;;;;;12.20;4.90;;;12.80;99.90;;;;;;5033622;28;20462;-49
2022/10/11 09:17:08;;;;;;;19.60;4.30;;;12.50;99.90;;;;;;5033539;28;20487;-50
2022/10/11 09:20:01;;;;;;;23.27;4.70;;;13.00;99.90;;;;;;5033109;28;20434;-49
2022/10/11 09:22:41;;;;;;;13.50;4.07;;;12.90;99.90;;;;;;5033334;28;20452;-49
2022/10/11 09:25:20;;;;;;;14.03;7.63;;;12.90;99.90;;;;;;5033199;28;20469;-50
2022/10/11 09:27:53;;;;;;;18.83;7.23;;;12.50;99.90;;;;;;5033635;28;20446;-50
2022/10/11 09:30:20;;;;;;;16.37;4.20;;;12.90;99.90;;;;;;5032847;28;20433;-48
2022/10/11 09:32:54;;;;;;;10.43;3.80;;;12.80;99.90;;;;;;5032962;28;20480;-50
2022/10/11 09:35:22;;;;;;;17.20;4.40;;;12.80;99.90;;;;;;5032691;28;20472;-51
2022/10/11 09:37:55;;;;;;;12.33;3.87;;;13.00;99.90;;;;;;5033109;28;20408;-51
2022/10/11 09:40:38;;;;;;;8.63;3.70;;;12.90;99.90;;;;;;5032861;28;20433;-49
2022/10/11 09:43:04;;;;;;;19.93;5.73;;;12.90;99.90;;;;;;5032978;28;20434;-51
2022/10/11 09:45:31;;;;;;;12.20;2.90;;;12.90;99.90;;;;;;5032227;28;20461;-50
2022/10/11 09:48:00;;;;;;;6.50;3.43;;;13.30;99.90;;;;;;5032925;28;20766;-50
2022/10/11 09:50:29;;;;;;;11.10;4.13;;;12.60;99.90;;;;;;5032453;28;20797;-49
2022/10/11 09:52:58;;;;;;;18.03;5.07;;;13.40;99.90;;;;;;5032744;28;20483;-49
2022/10/11 09:55:34;;;;;;;14.17;4.37;;;13.10;99.90;;;;;;5032748;28;20539;-49
2022/10/11 09:58:02;;;;;;;19.20;5.20;;;13.20;99.90;;;;;;5032777;28;20532;-49
2022/10/11 10:00:32;;;;;;;10.53;4.27;;;13.30;99.90;;;;;;5032199;28;20477;-49
2022/10/11 10:03:00;;;;;;;15.90;3.57;;;13.20;99.90;;;;;;5032880;28;20447;-49
2022/10/11 10:05:30;;;;;;;22.53;4.20;;;13.30;99.90;;;;;;5032368;28;20554;-50
2022/10/11 10:08:18;;;;;;;8.27;3.40;;;13.30;99.90;;;;;;5032425;28;20817;-48
2022/10/11 10:10:50;;;;;;;12.33;4.73;;;13.50;99.90;;;;;;5023015;28;20955;-50
2022/10/11 10:13:21;;;;;;;16.83;3.77;;;13.60;99.90;;;;;;5032495;28;20465;-50
2022/10/11 10:15:50;;;;;;;10.43;2.77;;;13.10;99.90;;;;;;5032363;28;20463;-50
2022/10/11 10:18:22;;;;;;;14.33;3.73;;;13.80;99.90;;;;;;5032327;28;20435;-50
2022/10/11 10:20:54;;;;;;;9.93;3.50;;;13.50;99.90;;;;;;5032326;28;20436;-50
2022/10/11 10:23:24;;;;;;;10.80;3.40;;;13.40;99.90;;;;;;5032195;28;20441;-49
2022/10/11 10:25:51;;;;;;;14.10;3.97;;;13.40;99.90;;;;;;5032381;28;21055;-49
2022/10/11 10:28:22;;;;;;;9.90;2.87;;;13.60;99.90;;;;;;5032307;28;20989;-49
2022/10/11 10:30:54;;;;;;;8.27;3.07;;;13.10;99.90;;;;;;5032083;28;20434;-50
2022/10/11 10:33:22;;;;;;;13.53;3.80;;;13.70;99.90;;;;;;5031766;28;20486;-50
2022/10/11 10:35:53;;;;;;;12.30;3.07;;;13.60;99.90;;;;;;5031775;28;20931;-51
2022/10/11 10:38:26;;;;;;;13.47;3.20;;;13.60;99.90;;;;;;5031438;28;20450;-49
2022/10/11 10:40:56;;;;;;;16.20;4.00;;;13.80;99.90;;;;;;5030653;28;20463;-50
2022/10/11 10:43:26;;;;;;;9.30;3.37;;;13.80;99.90;;;;;;5031218;28;20436;-50
2022/10/11 10:46:08;;;;;;;15.67;2.90;;;13.90;99.90;;;;;;5013106;28;20449;-50
2022/10/11 10:48:41;;;;;;;8.53;2.60;;;13.50;99.90;;;;;;5030455;28;20558;-50
2022/10/11 10:51:24;;;;;;;16.20;3.80;;;14.00;99.90;;;;;;5031052;28;20435;-49
2022/10/11 10:53:55;;;;;;;14.50;3.27;;;14.60;99.90;;;;;;5030589;28;20487;-53
2022/10/11 10:56:29;;;;;;;11.97;3.23;;;13.90;99.90;;;;;;5030438;28;20529;-50
2022/10/11 10:59:19;;;;;;;13.80;3.07;;;14.30;99.90;;;;;;5030552;28;20935;-49
2022/10/11 11:01:54;;;;;;;8.20;2.80;;;14.40;99.90;;;;;;5030520;28;20435;-50
2022/10/11 11:04:29;;;;;;;7.73;3.10;;;14.40;99.90;;;;;;5030702;28;20802;-50
2022/10/11 11:07:00;;;;;;;10.47;3.90;;;14.60;99.90;;;;;;5030245;28;20485;-51
2022/10/11 11:09:41;;;;;;;8.33;2.40;;;14.70;99.90;;;;;;5030058;28;20740;-50
2022/10/11 11:12:22;;;;;;;9.00;2.83;;;14.80;99.90;;;;;;5030607;28;20481;-50
2022/10/11 11:14:59;;;;;;;11.87;2.87;;;14.90;99.90;;;;;;5030800;28;20478;-49
2022/10/11 11:17:37;;;;;;;10.97;3.33;;;15.00;99.90;;;;;;5030600;28;20538;-50
2022/10/11 11:20:23;;;;;;;11.70;3.70;;;15.40;99.90;;;;;;5030215;28;20439;-50
2022/10/11 11:22:58;;;;;;;9.10;2.77;;;15.20;99.90;;;;;;5030234;28;20459;-50
2022/10/11 11:25:32;;;;;;;8.70;2.37;;;15.20;99.90;;;;;;5030111;28;20462;-50
2022/10/11 11:28:18;;;;;;;10.13;2.30;;;15.10;99.90;;;;;;5030548;28;20440;-49
2022/10/11 11:30:56;;;;;;;8.30;2.77;;;15.40;99.80;;;;;;5030201;28;20428;-50
2022/10/11 11:33:33;;;;;;;11.10;2.80;;;15.60;99.60;;;;;;4995365;28;991324;-50
2022/10/11 11:36:04;;;;;;;8.97;2.90;;;15.50;99.30;;;;;;5031077;28;20447;-50
2022/10/11 11:38:42;;;;;;;7.07;2.50;;;15.50;99.10;;;;;;5030736;28;20439;-49
2022/10/11 11:41:15;;;;;;;10.33;2.60;;;15.40;98.60;;;;;;5030953;28;20883;-48
2022/10/11 11:43:54;;;;;;;9.20;2.63;;;15.40;98.90;;;;;;5030991;28;20486;-51
2022/10/11 11:46:26;;;;;;;7.87;2.90;;;15.60;99.20;;;;;;5030867;28;20424;-51
2022/10/11 11:48:55;;;;;;;7.18;2.83;;;15.40;99.00;;;;;;5028916;28;20421;-51
2022/10/11 11:51:27;;;;;;;10.17;2.50;;;15.70;98.00;;;;;;5031043;28;20200;-50
2022/10/11 11:54:07;;;;;;;13.30;3.07;;;15.40;98.10;;;;;;5030920;28;20967;-50
2022/10/11 11:56:47;;;;;;;9.67;3.37;;;15.40;98.20;;;;;;5030890;28;20436;-50
2022/10/11 11:59:20;;;;;;;13.60;3.30;;;15.30;98.40;;;;;;5030552;28;20443;-50
2022/10/11 12:01:56;;;;;;;8.90;2.87;;;15.40;98.70;;;;;;5012530;28;20422;-50
2022/10/11 12:04:28;;;;;;;15.43;3.40;;;15.10;98.80;;;;;;5030893;28;20535;-48
2022/10/11 12:07:03;;;;;;;10.03;2.97;;;15.10;98.90;;;;;;5031326;28;20443;-50
2022/10/11 12:09:32;;;;;;;16.43;3.03;;;15.10;98.90;;;;;;5034452;28;20526;-49
2022/10/11 12:12:01;;;;;;;8.80;2.70;;;14.80;98.30;;;;;;5034401;28;20947;-51
2022/10/11 12:14:37;;;;;;;10.43;2.43;;;14.70;98.00;;;;;;5016655;28;20471;-48
2022/10/11 12:17:17;;;;;;;11.17;3.23;;;15.00;98.10;;;;;;5016456;28;20455;-50
2022/10/11 12:20:04;;;;;;;7.53;1.80;;;15.00;97.90;;;;;;5034077;28;20431;-48
2022/10/11 12:22:59;;;;;;;10.77;3.03;;;15.00;98.10;;;;;;5033750;28;20428;-50
2022/10/11 12:25:41;;;;;;;7.10;3.30;;;15.20;98.30;;;;;;5034550;28;20519;-49
2022/10/11 12:28:47;;;;;;;10.40;3.57;;;15.00;98.30;;;;;;5034297;28;20480;-50
2022/10/11 12:31:20;;;;;;;16.40;4.50;;;15.00;98.00;;;;;;5034023;28;20493;-51
2022/10/11 12:34:16;;;;;;;8.77;2.80;;;15.30;98.40;;;;;;5033954;28;20488;-50
2022/10/11 12:36:44;;;;;;;11.33;2.47;;;15.00;98.20;;;;;;5034753;28;20431;-51
2022/10/11 12:39:43;;;;;;;15.40;3.03;;;14.70;98.20;;;;;;5033909;28;21002;-52
2022/10/11 12:42:25;;;;;;;9.73;2.43;;;14.80;98.20;;;;;;5033837;28;20431;-49
2022/10/11 12:45:32;;;;;;;10.73;2.27;;;15.30;98.30;;;;;;5015734;28;20809;-50
2022/10/11 12:48:18;;;;;;;16.60;3.60;;;15.20;98.20;;;;;;5025333;28;20459;-51
2022/10/11 12:50:53;;;;;;;31.87;15.87;;;15.10;98.20;;;;;;5033659;28;20431;-50
2022/10/11 12:53:34;;;;;;;11.80;3.40;;;15.00;98.00;;;;;;5033734;28;20539;-51
2022/10/11 12:56:05;;;;;;;8.53;4.23;;;15.50;97.80;;;;;;5033643;28;20439;-49